createdAt,value
2019-04-10T00:00:57.209Z,33.17
2019-04-10T00:02:58.400Z,38.47
2019-04-10T00:04:59.624Z,36.87
2019-04-10T00:07:08.487Z,37.73
2019-04-10T00:09:05.008Z,42.00
2019-04-10T00:11:06.220Z,44.67
2019-04-10T00:13:07.785Z,43.70
2019-04-10T00:15:09.340Z,43.90
2019-04-10T00:17:11.154Z,45.43
2019-04-10T00:19:12.833Z,47.60
2019-04-10T00:21:15.437Z,48.40
2019-04-10T00:23:17.328Z,47.87
2019-04-10T00:25:18.905Z,50.07
2019-04-10T00:27:20.791Z,51.47
2019-04-10T00:29:22.421Z,51.17
2019-04-10T00:31:24.325Z,47.37
2019-04-10T00:33:26.845Z,50.27
2019-04-10T00:35:28.336Z,49.60
2019-04-10T00:37:31.309Z,49.70
2019-04-10T00:39:32.990Z,50.87
2019-04-10T00:41:34.437Z,50.00
2019-04-10T00:43:37.100Z,54.50
2019-04-10T00:45:38.433Z,52.80
2019-04-10T00:47:39.993Z,53.57
2019-04-10T00:49:41.936Z,55.57
2019-04-10T00:51:43.635Z,54.37
2019-04-10T00:53:45.560Z,53.77
2019-04-10T00:55:46.888Z,55.07
2019-04-10T00:57:48.102Z,55.03
2019-04-10T00:59:50.492Z,53.53
2019-04-10T01:01:52.186Z,57.23
2019-04-10T01:03:53.887Z,57.90
2019-04-10T01:05:55.498Z,59.23
2019-04-10T01:07:57.152Z,55.43
2019-04-10T01:09:58.449Z,58.23
2019-04-10T01:11:59.805Z,58.17
2019-04-10T01:14:01.376Z,56.37
2019-04-10T01:16:02.848Z,57.23
2019-04-10T01:18:04.633Z,56.43
2019-04-10T01:20:07.115Z,58.20
2019-04-10T01:22:08.666Z,56.17
2019-04-10T01:24:09.900Z,56.13
2019-04-10T01:26:11.114Z,55.63
2019-04-10T01:28:12.345Z,58.20
2019-04-10T01:30:13.867Z,57.97
2019-04-10T01:32:15.544Z,58.40
2019-04-10T01:34:17.067Z,59.60
2019-04-10T01:36:18.726Z,60.33
2019-04-10T01:38:19.953Z,59.87
2019-04-10T01:40:21.734Z,58.57
2019-04-10T01:42:23.048Z,57.07
2019-04-10T01:44:24.742Z,57.77
2019-04-10T01:46:26.450Z,56.87
2019-04-10T01:48:28.120Z,58.67
2019-04-10T01:50:32.598Z,58.03
2019-04-10T01:52:33.908Z,58.13
2019-04-10T01:54:35.350Z,58.90
2019-04-10T01:56:36.883Z,56.13
2019-04-10T01:58:41.002Z,58.17
2019-04-10T02:00:46.710Z,58.27
2019-04-10T02:02:49.611Z,57.40
2019-04-10T02:04:53.448Z,59.63
2019-04-10T02:06:54.128Z,61.80
2019-04-10T02:08:56.343Z,60.53
2019-04-10T02:10:58.631Z,59.47
2019-04-10T02:13:01.097Z,61.07
2019-04-10T02:15:03.029Z,59.73
2019-04-10T02:17:04.636Z,60.43
2019-04-10T02:19:06.056Z,59.90
2019-04-10T02:21:07.534Z,60.03
2019-04-10T02:23:09.978Z,61.03
2019-04-10T02:25:11.609Z,61.10
2019-04-10T02:27:14.004Z,60.60
2019-04-10T02:29:15.732Z,62.67
2019-04-10T02:31:18.459Z,60.53
2019-04-10T02:33:20.083Z,60.37
2019-04-10T02:35:22.548Z,62.13
2019-04-10T02:37:25.044Z,62.57
2019-04-10T02:39:35.487Z,61.50
2019-04-10T02:41:32.193Z,60.83
2019-04-10T02:43:33.765Z,61.30
2019-04-10T02:45:36.442Z,63.57
2019-04-10T02:47:38.934Z,61.77
2019-04-10T02:49:40.492Z,62.90
2019-04-10T02:51:43.251Z,64.27
2019-04-10T02:53:45.988Z,60.87
2019-04-10T02:55:49.255Z,61.17
2019-04-10T02:57:51.904Z,63.67
2019-04-10T02:59:53.797Z,60.33
2019-04-10T03:01:56.206Z,61.53
2019-04-10T03:03:59.234Z,58.63
2019-04-10T03:06:00.762Z,57.63
2019-04-10T03:08:02.075Z,59.03
2019-04-10T03:10:15.710Z,58.03
2019-04-10T03:12:08.507Z,59.77
2019-04-10T03:14:12.338Z,62.00
2019-04-10T03:16:14.086Z,61.43
2019-04-10T03:18:16.821Z,58.77
2019-04-10T03:20:18.511Z,57.90
2019-04-10T03:22:20.817Z,59.23
2019-04-10T03:24:23.170Z,60.87
2019-04-10T03:26:25.632Z,58.50
2019-04-10T03:28:27.123Z,59.10
2019-04-10T03:30:29.745Z,59.10
2019-04-10T03:32:51.642Z,59.43
2019-04-10T03:34:51.187Z,58.00
2019-04-10T03:36:53.794Z,60.43
2019-04-10T03:39:00.135Z,59.53
2019-04-10T03:40:59.725Z,61.37
2019-04-10T03:43:01.545Z,60.73
2019-04-10T03:45:03.322Z,60.13
2019-04-10T03:47:04.690Z,62.00
2019-04-10T03:49:05.909Z,60.33
2019-04-10T03:51:08.204Z,58.70
2019-04-10T03:53:09.773Z,61.27
2019-04-10T03:55:12.469Z,61.83
2019-04-10T03:57:14.280Z,62.30
2019-04-10T03:59:15.916Z,61.53
2019-04-10T04:01:18.374Z,60.80
2019-04-10T04:03:20.406Z,64.67
2019-04-10T04:05:22.432Z,62.80
2019-04-10T04:07:26.007Z,58.90
2019-04-10T04:09:27.229Z,64.80
2019-04-10T04:11:29.396Z,63.87
2019-04-10T04:13:31.317Z,62.40
2019-04-10T04:15:33.660Z,62.77
2019-04-10T04:17:36.023Z,63.80
2019-04-10T04:19:38.002Z,62.77
2019-04-10T04:21:39.685Z,62.43
2019-04-10T04:23:41.076Z,61.03
2019-04-10T04:25:42.803Z,64.30
2019-04-10T04:27:44.221Z,61.63
2019-04-10T04:29:45.574Z,61.90
2019-04-10T04:31:46.780Z,62.07
2019-04-10T04:33:48.957Z,62.70
2019-04-10T04:35:51.051Z,62.40
2019-04-10T04:37:52.673Z,62.43
2019-04-10T04:39:54.293Z,61.23
2019-04-10T04:41:56.378Z,62.10
2019-04-10T04:43:57.664Z,62.43
2019-04-10T04:45:59.191Z,64.30
2019-04-10T04:48:00.521Z,61.43
2019-04-10T04:50:02.046Z,62.97
2019-04-10T04:52:03.384Z,60.40
2019-04-10T04:54:08.722Z,61.20
2019-04-10T04:56:11.427Z,62.60
2019-04-10T04:58:13.766Z,61.57
2019-04-10T05:00:15.305Z,61.43
2019-04-10T05:02:17.687Z,59.17
2019-04-10T05:04:19.355Z,62.10
2019-04-10T05:06:20.990Z,61.90
2019-04-10T05:08:23.889Z,60.97
2019-04-10T05:10:25.522Z,58.87
2019-04-10T05:12:27.705Z,60.57
2019-04-10T05:14:29.468Z,58.00
2019-04-10T05:16:31.015Z,62.23
2019-04-10T05:18:32.316Z,60.53
2019-04-10T05:20:43.978Z,57.93
2019-04-10T05:22:36.676Z,55.77
2019-04-10T05:24:38.417Z,56.70
2019-04-10T05:26:40.587Z,57.20
2019-04-10T05:28:41.921Z,59.27
2019-04-10T05:30:43.232Z,58.33
2019-04-10T05:32:44.452Z,57.43
2019-04-10T05:34:46.706Z,55.67
2019-04-10T05:36:49.047Z,56.13
2019-04-10T05:38:51.120Z,57.23
2019-04-10T05:40:53.092Z,56.83
2019-04-10T05:42:55.454Z,57.80
2019-04-10T05:44:56.848Z,59.07
2019-04-10T05:46:58.064Z,55.47
2019-04-10T05:49:00.089Z,57.53
2019-04-10T05:51:04.827Z,55.20
2019-04-10T05:53:04.468Z,56.23
2019-04-10T05:55:06.396Z,55.73
2019-04-10T05:57:08.335Z,54.27
2019-04-10T05:59:10.839Z,55.40
2019-04-10T06:01:13.576Z,55.20
2019-04-10T06:03:14.897Z,54.07
2019-04-10T06:05:16.267Z,54.63
2019-04-10T06:07:17.643Z,53.00
2019-04-10T06:09:18.861Z,53.17
2019-04-10T06:11:20.548Z,52.70
2019-04-10T06:13:22.818Z,53.43
2019-04-10T06:15:24.328Z,52.33
2019-04-10T06:17:26.841Z,53.83
2019-04-10T06:19:28.790Z,53.93
2019-04-10T06:21:31.307Z,56.67
2019-04-10T06:23:33.742Z,52.50
2019-04-10T06:25:38.025Z,51.30
2019-04-10T06:27:38.870Z,51.20
2019-04-10T06:29:41.317Z,53.67
2019-04-10T06:31:43.042Z,50.87
2019-04-10T06:33:44.489Z,54.33
2019-04-10T06:35:46.827Z,51.50
2019-04-10T06:37:48.409Z,50.87
2019-04-10T06:39:51.134Z,51.67
2019-04-10T06:41:52.502Z,49.33
2019-04-10T06:43:55.274Z,48.07
2019-04-10T06:45:57.843Z,48.40
2019-04-10T06:47:59.258Z,46.60
2019-04-10T06:50:02.573Z,51.07
2019-04-10T06:52:03.924Z,48.60
2019-04-10T06:54:09.393Z,47.60
2019-04-10T06:56:09.750Z,48.10
2019-04-10T06:58:11.700Z,46.23
2019-04-10T07:00:32.721Z,45.33
2019-04-10T07:02:53.100Z,45.77
2019-04-10T07:04:57.363Z,44.27
2019-04-10T07:07:04.560Z,45.60
2019-04-10T07:09:01.224Z,43.80
2019-04-10T07:11:08.664Z,45.40
2019-04-10T07:13:08.623Z,47.03
2019-04-10T07:15:10.534Z,45.07
2019-04-10T07:17:14.230Z,45.13
2019-04-10T07:19:15.762Z,44.57
2019-04-10T07:21:17.220Z,43.10
2019-04-10T07:23:23.935Z,44.10
2019-04-10T07:25:21.948Z,46.63
2019-04-10T07:27:23.808Z,43.83
2019-04-10T07:29:27.719Z,43.57
2019-04-10T07:31:32.427Z,43.53
2019-04-10T07:33:32.950Z,44.17
2019-04-10T07:35:35.500Z,43.43
2019-04-10T07:37:37.492Z,44.23
2019-04-10T07:39:39.510Z,44.33
2019-04-10T07:41:41.795Z,45.37
2019-04-10T07:43:44.668Z,43.30
2019-04-10T07:45:46.356Z,45.17
2019-04-10T07:47:48.329Z,43.20
2019-04-10T07:49:50.336Z,44.20
2019-04-10T07:51:52.030Z,44.67
2019-04-10T07:53:53.458Z,43.80
2019-04-10T07:56:03.063Z,44.30
2019-04-10T07:57:59.266Z,44.17
2019-04-10T08:00:01.342Z,44.07
2019-04-10T08:02:02.613Z,42.93
2019-04-10T08:04:06.269Z,43.93
2019-04-10T08:06:07.617Z,43.97
2019-04-10T08:08:08.851Z,43.80
2019-04-10T08:10:10.188Z,45.23
2019-04-10T08:12:12.946Z,44.17
2019-04-10T08:14:14.865Z,43.10
2019-04-10T08:16:17.044Z,45.57
2019-04-10T08:18:18.968Z,45.37
2019-04-10T08:20:20.353Z,43.87
2019-04-10T08:22:22.146Z,43.30
2019-04-10T08:24:23.766Z,45.40
2019-04-10T08:26:25.417Z,41.80
2019-04-10T08:28:30.221Z,41.90
2019-04-10T08:30:30.031Z,43.03
2019-04-10T08:32:32.262Z,43.47
2019-04-10T08:34:35.730Z,43.27
2019-04-10T08:36:37.467Z,45.33
2019-04-10T08:38:39.853Z,43.77
2019-04-10T08:40:41.381Z,44.27
2019-04-10T08:42:45.021Z,44.17
2019-04-10T08:44:46.626Z,42.07
2019-04-10T08:46:48.301Z,43.60
2019-04-10T08:48:49.837Z,44.27
2019-04-10T08:50:52.396Z,42.00
2019-04-10T08:52:53.733Z,43.33
2019-04-10T08:54:54.946Z,43.60
2019-04-10T08:56:56.885Z,42.23
2019-04-10T08:58:59.230Z,42.63
2019-04-10T09:01:00.789Z,41.30
2019-04-10T09:03:02.393Z,43.03
2019-04-10T09:05:03.993Z,43.17
2019-04-10T09:07:06.733Z,42.27
2019-04-10T09:09:08.239Z,43.50
2019-04-10T09:11:09.748Z,43.17
2019-04-10T09:13:12.430Z,41.93
2019-04-10T09:15:13.991Z,43.50
2019-04-10T09:17:15.423Z,41.63
2019-04-10T09:19:16.629Z,43.37
2019-04-10T09:21:17.835Z,42.10
2019-04-10T09:23:27.573Z,43.37
2019-04-10T09:25:22.903Z,41.57
2019-04-10T09:27:24.796Z,43.53
2019-04-10T09:29:26.216Z,44.00
2019-04-10T09:31:27.425Z,43.27
2019-04-10T09:33:30.792Z,42.73
2019-04-10T09:35:32.826Z,43.77
2019-04-10T09:37:34.514Z,42.03
2019-04-10T09:39:36.188Z,43.53
2019-04-10T09:41:38.283Z,43.23
2019-04-10T09:43:40.101Z,41.50
2019-04-10T09:45:41.660Z,42.83
2019-04-10T09:47:43.865Z,41.27
2019-04-10T09:49:47.026Z,41.90
2019-04-10T09:51:48.400Z,41.20
2019-04-10T09:53:49.617Z,42.23
2019-04-10T09:55:52.343Z,42.30
2019-04-10T09:57:54.092Z,42.77
2019-04-10T09:59:55.308Z,42.37
2019-04-10T10:01:56.549Z,44.27
2019-04-10T10:03:57.873Z,41.57
2019-04-10T10:06:00.338Z,42.50
2019-04-10T10:08:02.564Z,41.77
2019-04-10T10:10:04.897Z,43.00
2019-04-10T10:12:07.330Z,42.60
2019-04-10T10:14:10.291Z,43.70
2019-04-10T10:16:11.660Z,42.57
2019-04-10T10:18:13.043Z,41.97
2019-04-10T10:20:15.419Z,42.00
2019-04-10T10:22:16.934Z,41.63
2019-04-10T10:24:18.335Z,41.93
2019-04-10T10:26:19.821Z,40.97
2019-04-10T10:28:21.158Z,42.47
2019-04-10T10:30:23.148Z,41.60
2019-04-10T10:32:24.738Z,42.63
2019-04-10T10:34:26.432Z,42.20
2019-04-10T10:36:36.726Z,41.93
2019-04-10T10:38:31.449Z,42.53
2019-04-10T10:40:33.957Z,41.33
2019-04-10T10:42:38.104Z,41.90
2019-04-10T10:44:38.776Z,41.60
2019-04-10T10:46:39.989Z,42.20
2019-04-10T10:48:42.049Z,41.93
2019-04-10T10:50:43.701Z,43.03
2019-04-10T10:52:45.869Z,43.37
2019-04-10T10:54:47.568Z,41.23
2019-04-10T10:56:48.861Z,41.43
2019-04-10T10:58:50.305Z,40.97
2019-04-10T11:00:51.877Z,41.33
2019-04-10T11:02:54.013Z,42.03
2019-04-10T11:04:55.927Z,43.17
2019-04-10T11:07:00.385Z,42.17
2019-04-10T11:09:01.943Z,43.07
2019-04-10T11:11:04.195Z,43.93
2019-04-10T11:13:06.557Z,41.67
2019-04-10T11:15:08.228Z,42.33
2019-04-10T11:17:09.837Z,43.43
2019-04-10T11:19:11.408Z,42.43
2019-04-10T11:21:12.851Z,43.13
2019-04-10T11:23:14.581Z,41.60
2019-04-10T11:25:16.577Z,42.80
2019-04-10T11:27:18.356Z,39.97
2019-04-10T11:29:19.588Z,42.83
2019-04-10T11:31:21.158Z,41.87
2019-04-10T11:33:22.768Z,42.47
2019-04-10T11:35:24.250Z,42.37
2019-04-10T11:39:31.754Z,42.60
2019-04-10T11:41:33.029Z,43.03
2019-04-10T11:43:36.200Z,41.60
2019-04-10T11:45:43.558Z,43.83
2019-04-10T11:47:42.576Z,41.97
2019-04-10T11:49:45.173Z,42.67
2019-04-10T11:51:48.665Z,44.03
2019-04-10T11:53:55.021Z,43.87
2019-04-10T11:55:54.296Z,44.23
2019-04-10T11:57:59.372Z,44.30
2019-04-10T12:00:02.313Z,44.63
2019-04-10T12:02:06.472Z,42.03
2019-04-10T12:04:08.650Z,43.33
2019-04-10T12:06:11.962Z,42.60
2019-04-10T12:08:50.373Z,42.33
2019-04-10T12:12:19.557Z,42.27
2019-04-10T12:14:21.588Z,43.30
2019-04-10T12:16:23.248Z,43.33
2019-04-10T12:18:24.824Z,42.77
2019-04-10T12:20:26.941Z,42.77
2019-04-10T12:22:29.548Z,43.57
2019-04-10T12:24:31.965Z,42.77
2019-04-10T12:26:33.965Z,44.47
2019-04-10T12:28:36.094Z,41.90
2019-04-10T12:30:37.506Z,42.37
2019-04-10T12:32:39.048Z,43.63
2019-04-10T12:34:40.420Z,44.63
2019-04-10T12:36:42.644Z,43.43
2019-04-10T12:38:44.069Z,43.17
2019-04-10T12:40:45.298Z,41.53
2019-04-10T12:42:46.536Z,41.33
2019-04-10T12:44:47.768Z,38.10
2019-04-10T12:46:49.261Z,38.57
2019-04-10T12:48:50.739Z,38.73
2019-04-10T12:50:53.062Z,37.00
2019-04-10T12:52:54.725Z,37.17
2019-04-10T12:54:56.587Z,34.63
2019-04-10T12:56:58.778Z,37.47
2019-04-10T12:59:01.316Z,37.00
2019-04-10T13:01:04.532Z,38.23
2019-04-10T13:03:06.882Z,36.33
2019-04-10T13:05:09.371Z,38.87
2019-04-10T13:07:11.623Z,38.33
2019-04-10T13:09:14.338Z,36.93
2019-04-10T13:11:16.275Z,37.63
2019-04-10T13:13:17.868Z,38.03
2019-04-10T13:15:19.309Z,38.80
2019-04-10T13:17:20.652Z,39.50
2019-04-10T13:19:21.873Z,39.47
2019-04-10T13:21:23.193Z,39.83
2019-04-10T13:23:24.684Z,41.03
2019-04-10T13:25:26.108Z,42.97
2019-04-10T13:27:28.511Z,43.10
2019-04-10T13:29:30.064Z,43.67
2019-04-10T13:31:31.344Z,41.93
2019-04-10T13:33:32.964Z,41.00
2019-04-10T13:35:34.457Z,35.27
2019-04-10T13:37:35.998Z,35.17
2019-04-10T13:39:37.219Z,35.87
2019-04-10T13:41:38.676Z,34.17
2019-04-10T13:43:40.644Z,34.60
2019-04-10T13:45:41.892Z,34.43
2019-04-10T13:47:43.133Z,34.40
2019-04-10T13:49:44.366Z,35.07
2019-04-10T13:51:45.724Z,36.20
2019-04-10T13:53:47.904Z,35.47
2019-04-10T13:55:50.553Z,36.23
2019-04-10T13:57:52.912Z,36.57
2019-04-10T13:59:55.337Z,35.60
2019-04-10T14:01:56.864Z,34.07
2019-04-10T14:03:58.681Z,34.10
2019-04-10T14:06:01.150Z,34.50
2019-04-10T14:08:02.491Z,34.30
2019-04-10T14:10:05.070Z,34.27
2019-04-10T14:12:06.596Z,34.93
2019-04-10T14:14:08.533Z,35.60
2019-04-10T14:16:10.670Z,36.47
2019-04-10T14:18:12.657Z,35.37
2019-04-10T14:20:15.145Z,34.33
2019-04-10T14:22:17.716Z,33.97
2019-04-10T14:24:19.969Z,33.83
2019-04-10T14:26:42.196Z,33.67
2019-04-10T14:28:35.436Z,33.23
2019-04-10T14:30:37.982Z,32.33
2019-04-10T14:32:39.737Z,32.93
2019-04-10T14:34:42.876Z,32.03
2019-04-10T14:36:44.553Z,32.97
2019-04-10T14:38:46.019Z,32.63
2019-04-10T14:40:47.496Z,30.50
2019-04-10T14:42:49.450Z,27.77
2019-04-10T14:44:50.984Z,27.07
2019-04-10T14:46:52.286Z,26.63
2019-04-10T14:48:54.452Z,26.20
2019-04-10T14:50:55.741Z,26.57
2019-04-10T14:52:57.312Z,26.43
2019-04-10T14:54:58.537Z,26.67
2019-04-10T14:57:00.049Z,26.97
2019-04-10T14:59:02.078Z,27.03
2019-04-10T15:01:06.968Z,26.10
2019-04-10T15:03:08.126Z,25.60
2019-04-10T15:05:10.061Z,26.57
2019-04-10T15:07:12.268Z,27.77
2019-04-10T15:09:23.654Z,27.57
2019-04-10T15:11:18.350Z,28.00
2019-04-10T15:13:22.464Z,27.20
2019-04-10T15:15:23.883Z,26.80
2019-04-10T15:17:25.369Z,27.47
2019-04-10T15:19:26.921Z,27.20
2019-04-10T15:21:29.148Z,27.63
2019-04-10T15:23:31.515Z,27.13
2019-04-10T15:25:33.263Z,28.50
2019-04-10T15:27:35.499Z,27.30
2019-04-10T15:29:36.916Z,27.97
2019-04-10T15:31:39.428Z,28.30
2019-04-10T15:33:40.936Z,27.80
2019-04-10T15:35:42.173Z,27.93
2019-04-10T15:37:43.395Z,28.03
2019-04-10T15:39:44.950Z,28.00
2019-04-10T15:41:46.269Z,27.53
2019-04-10T15:43:47.720Z,27.70
2019-04-10T15:45:49.104Z,27.17
2019-04-10T15:47:55.438Z,26.77
2019-04-10T15:49:54.068Z,26.93
2019-04-10T15:51:55.629Z,27.10
2019-04-10T15:53:57.110Z,26.90
2019-04-10T15:55:58.448Z,27.13
2019-04-10T15:58:02.214Z,25.80
2019-04-10T16:00:05.104Z,26.17
2019-04-10T16:02:07.696Z,26.43
2019-04-10T16:04:09.838Z,26.90
2019-04-10T16:06:11.291Z,27.13
2019-04-10T16:08:14.242Z,27.70
2019-04-10T16:10:33.045Z,27.00
2019-04-10T16:12:35.233Z,25.77
2019-04-10T16:14:36.544Z,26.43
2019-04-10T16:16:56.987Z,25.67
2019-04-10T16:19:09.769Z,26.37
2019-04-10T16:21:12.437Z,26.63
2019-04-10T16:23:16.941Z,25.73
2019-04-10T16:25:23.829Z,25.03
2019-04-10T16:27:25.104Z,26.30
2019-04-10T16:29:26.712Z,26.33
2019-04-10T16:31:28.082Z,26.43
2019-04-10T16:33:29.497Z,26.33
2019-04-10T16:35:33.668Z,26.30
2019-04-10T16:37:34.155Z,25.87
2019-04-10T16:39:36.317Z,26.27
2019-04-10T16:41:38.056Z,26.53
2019-04-10T16:43:40.408Z,26.30
2019-04-10T16:45:42.506Z,28.87
2019-04-10T16:47:44.070Z,27.00
2019-04-10T16:49:46.727Z,26.70
2019-04-10T16:51:48.397Z,26.43
2019-04-10T16:53:49.934Z,26.63
2019-04-10T16:55:51.517Z,25.60
2019-04-10T16:57:53.493Z,26.30
2019-04-10T16:59:55.964Z,27.00
2019-04-10T17:01:57.737Z,27.23
2019-04-10T17:03:59.302Z,26.97
2019-04-10T17:06:00.516Z,25.60
2019-04-10T17:08:01.752Z,26.73
2019-04-10T17:10:14.134Z,25.63
2019-04-10T17:12:07.450Z,26.73
2019-04-10T17:14:08.945Z,26.13
2019-04-10T17:16:10.319Z,26.93
2019-04-10T17:18:11.802Z,25.73
2019-04-10T17:20:14.062Z,25.03
2019-04-10T17:22:17.607Z,25.83
2019-04-10T17:24:18.637Z,26.47
2019-04-10T17:26:19.860Z,25.50
2019-04-10T17:28:23.199Z,26.17
2019-04-10T17:30:25.359Z,26.50
2019-04-10T17:32:27.103Z,26.53
2019-04-10T17:34:28.676Z,26.47
2019-04-10T17:36:30.245Z,26.03
2019-04-10T17:38:31.482Z,26.57
2019-04-10T17:40:40.692Z,25.97
2019-04-10T17:42:37.722Z,26.13
2019-04-10T17:44:40.148Z,26.07
2019-04-10T17:46:41.918Z,26.57
2019-04-10T17:48:44.121Z,26.50
2019-04-10T17:50:45.842Z,25.50
2019-04-10T17:52:47.304Z,26.03
2019-04-10T17:54:49.186Z,27.10
2019-04-10T17:56:50.890Z,26.70
2019-04-10T17:58:52.154Z,26.37
2019-04-10T18:00:55.864Z,25.77
2019-04-10T18:02:57.230Z,26.50
2019-04-10T18:04:58.520Z,25.77
2019-04-10T18:07:00.145Z,25.87
2019-04-10T18:09:01.731Z,25.67
2019-04-10T18:11:03.801Z,25.27
2019-04-10T18:13:05.546Z,24.00
2019-04-10T18:15:08.127Z,25.40
2019-04-10T18:17:10.925Z,27.80
2019-04-10T18:19:15.363Z,26.37
2019-04-10T18:21:16.927Z,26.00
2019-04-10T18:23:18.282Z,25.00
2019-04-10T18:25:20.155Z,25.87
2019-04-10T18:27:22.506Z,25.53
2019-04-10T18:29:25.302Z,24.47
2019-04-10T18:31:27.878Z,25.73
2019-04-10T18:33:30.759Z,25.53
2019-04-10T18:35:33.578Z,24.97
2019-04-10T18:37:35.396Z,24.97
2019-04-10T18:39:36.751Z,25.70
2019-04-10T18:41:38.329Z,25.73
2019-04-10T18:43:40.351Z,25.93
2019-04-10T18:45:53.906Z,25.40
2019-04-10T18:47:46.037Z,25.93
2019-04-10T18:49:47.518Z,26.03
2019-04-10T18:51:49.974Z,25.17
2019-04-10T18:53:51.392Z,24.70
2019-04-10T18:55:52.664Z,25.90
2019-04-10T18:57:54.935Z,25.70
2019-04-10T19:00:15.387Z,25.63
2019-04-10T19:02:41.086Z,24.90
2019-04-10T19:04:49.539Z,25.23
2019-04-10T19:06:56.784Z,25.47
2019-04-10T19:09:06.456Z,25.20
2019-04-10T19:11:16.907Z,25.90
2019-04-10T19:13:05.371Z,25.43
2019-04-10T19:15:06.823Z,24.77
2019-04-10T19:17:09.131Z,25.57
2019-04-10T19:19:10.479Z,24.40
2019-04-10T19:21:12.033Z,25.87
2019-04-10T19:23:13.269Z,26.30
2019-04-10T19:25:14.622Z,26.90
2019-04-10T19:27:16.141Z,27.63
2019-04-10T19:29:17.737Z,26.33
2019-04-10T19:31:22.727Z,26.50
2019-04-10T19:33:23.778Z,26.37
2019-04-10T19:35:25.044Z,26.77
2019-04-10T19:37:26.256Z,25.97
2019-04-10T19:39:27.492Z,26.37
2019-04-10T19:41:35.724Z,25.40
2019-04-10T19:43:33.141Z,25.10
2019-04-10T19:45:36.045Z,25.37
2019-04-10T19:47:38.746Z,25.10
2019-04-10T19:49:41.282Z,23.47
2019-04-10T19:51:42.994Z,23.73
2019-04-10T19:53:44.221Z,23.87
2019-04-10T19:55:46.253Z,23.63
2019-04-10T19:57:47.917Z,24.20
2019-04-10T19:59:50.037Z,24.10
2019-04-10T20:01:52.654Z,22.77
2019-04-10T20:03:54.278Z,21.90
2019-04-10T20:05:55.617Z,22.80
2019-04-10T20:07:57.461Z,21.40
2019-04-10T20:09:59.122Z,22.33
2019-04-10T20:12:00.356Z,21.03
2019-04-10T20:14:02.082Z,20.87
2019-04-10T20:16:03.452Z,20.20
2019-04-10T20:18:04.672Z,20.23
2019-04-10T20:20:06.862Z,20.70
2019-04-10T20:22:08.504Z,19.50
2019-04-10T20:24:10.446Z,20.77
2019-04-10T20:26:12.648Z,19.83
2019-04-10T20:28:14.280Z,19.57
2019-04-10T20:30:17.348Z,19.97
2019-04-10T20:32:19.665Z,19.30
2019-04-10T20:34:21.293Z,19.03
2019-04-10T20:36:23.148Z,18.07
2019-04-10T20:38:25.202Z,19.00
2019-04-10T20:40:27.581Z,18.73
2019-04-10T20:42:29.922Z,18.00
2019-04-10T20:44:32.501Z,17.33
2019-04-10T20:46:34.116Z,17.43
2019-04-10T20:48:36.194Z,17.60
2019-04-10T20:50:37.709Z,17.83
2019-04-10T20:52:40.842Z,16.97
2019-04-10T20:54:42.521Z,18.37
2019-04-10T20:56:43.792Z,18.07
2019-04-10T20:58:45.293Z,18.23
2019-04-10T21:00:47.113Z,17.47
2019-04-10T21:02:48.869Z,17.73
2019-04-10T21:04:58.915Z,17.77
2019-04-10T21:06:54.375Z,18.10
2019-04-10T21:08:55.854Z,18.30
2019-04-10T21:10:57.068Z,18.23
2019-04-10T21:12:59.688Z,18.73
2019-04-10T21:15:01.423Z,17.87
2019-04-10T21:17:03.088Z,17.83
2019-04-10T21:19:04.636Z,18.70
2019-04-10T21:21:05.984Z,18.17
2019-04-10T21:23:07.267Z,18.67
2019-04-10T21:25:08.488Z,18.33
2019-04-10T21:27:09.709Z,18.53
2019-04-10T21:29:16.394Z,18.77
2019-04-10T21:31:56.754Z,18.73
2019-04-10T21:34:21.734Z,18.30
2019-04-10T21:36:24.028Z,18.37
2019-04-10T21:38:25.857Z,17.67
2019-04-10T21:40:27.315Z,18.57
2019-04-10T21:42:29.663Z,19.13
2019-04-10T21:44:31.071Z,18.77
2019-04-10T21:46:32.625Z,18.43
2019-04-10T21:48:35.057Z,18.57
2019-04-10T21:50:36.332Z,18.77
2019-04-10T21:52:37.569Z,19.57
2019-04-10T21:54:48.749Z,18.47
2019-04-10T21:56:43.008Z,18.43
2019-04-10T21:58:44.685Z,18.20
2019-04-10T22:01:03.390Z,19.63
2019-04-10T22:03:05.031Z,20.00
2019-04-10T22:05:08.170Z,18.80
2019-04-10T22:07:27.907Z,19.43
2019-04-10T22:09:55.166Z,19.33
2019-04-10T22:11:57.557Z,19.27
2019-04-10T22:13:58.764Z,19.40
2019-04-10T22:16:00.076Z,20.10
2019-04-10T22:18:01.565Z,19.77
2019-04-10T22:20:03.366Z,18.80
2019-04-10T22:22:06.191Z,18.77
2019-04-10T22:24:07.508Z,18.40
2019-04-10T22:26:09.515Z,18.90
2019-04-10T22:28:10.813Z,17.83
2019-04-10T22:30:12.431Z,17.43
2019-04-10T22:32:14.136Z,17.57
2019-04-10T22:34:15.412Z,18.10
2019-04-10T22:36:17.154Z,18.03
2019-04-10T22:38:19.403Z,19.20
2019-04-10T22:40:21.457Z,18.20
2019-04-10T22:42:37.920Z,18.63
2019-04-10T22:44:35.881Z,19.63
2019-04-10T22:46:29.931Z,18.90
2019-04-10T22:48:32.828Z,19.57
2019-04-10T22:50:34.471Z,19.13
2019-04-10T22:52:36.701Z,19.43
2019-04-10T22:54:38.841Z,18.77
2019-04-10T22:56:40.405Z,18.87
2019-04-10T22:58:43.117Z,18.80
2019-04-10T23:00:45.966Z,19.33
2019-04-10T23:02:48.283Z,18.87
2019-04-10T23:04:49.804Z,17.93
2019-04-10T23:06:51.391Z,18.37
2019-04-10T23:08:52.663Z,19.37
2019-04-10T23:10:54.108Z,18.97
2019-04-10T23:13:02.491Z,19.30
2019-04-10T23:14:58.783Z,18.93
2019-04-10T23:17:00.202Z,19.00
2019-04-10T23:19:01.848Z,18.47
2019-04-10T23:21:03.974Z,18.47
2019-04-10T23:23:06.498Z,19.23
2019-04-10T23:25:07.936Z,17.93
2019-04-10T23:27:09.380Z,17.63
2019-04-10T23:29:11.710Z,18.60
2019-04-10T23:31:13.230Z,18.17
2019-04-10T23:33:15.522Z,18.07
2019-04-10T23:35:17.093Z,17.97
2019-04-10T23:37:18.494Z,17.90
2019-04-10T23:39:21.797Z,18.97
2019-04-10T23:41:23.362Z,18.20
2019-04-10T23:43:24.676Z,19.27
2019-04-10T23:45:26.393Z,18.50
2019-04-10T23:47:28.450Z,19.30
2019-04-10T23:49:29.892Z,17.83
2019-04-10T23:51:31.545Z,17.93
2019-04-10T23:53:33.116Z,18.90
2019-04-10T23:55:34.432Z,17.97
2019-04-10T23:57:35.729Z,17.43
2019-04-10T23:59:37.161Z,16.83
